Flight Track Log - Related Links

Times and Time Zones

All times are in EDT time to prevent confusion due to time zone crossing. See the N53NW flight status page for this flight to view local times or setup timezone preferences in your user account.

Time Position Orientation Groundspeed Altitude Reporting Facility
EDT Latitude Longitude Course Direction KTS MPH feet Rate Location/Type
Mon 07:09:47 PM 42.3203 -85.2142 184° South 232 267 2,600  Level Chicago Center
Mon 07:10:49 PM 42.2592 -85.1642 149° Southeast 254 292 6,700 3,532 Climbing Chicago Center
Mon 07:11:51 PM 42.1828 -85.1769 187° South 279 321 9,900 2,323 Climbing Chicago Center
Mon 07:12:53 PM 42.1008 -85.2006 192° South 300 345 11,500 2,274 Climbing Chicago Center
Mon 07:13:55 PM 42.0181 -85.2092 184° South 298 343 14,600 3,048 Climbing Chicago Center
Mon 07:14:57 PM 41.9222 -85.2203 185° South 306 352 17,800 1,645 Climbing Chicago Center
Mon 07:15:00 PM 41.8688 -85.2715 184° South  Level FlightAware Approximate
Mon 07:15:59 PM 41.8261 -85.2300 184° South 340 391 18,000  Level Chicago Center
Mon 07:17:01 PM 41.7244 -85.2417 185° South 360 414 18,000  Level Chicago Center
Mon 07:18:03 PM 41.6253 -85.2508 184° South 350 403 18,000  Level Chicago Center
Mon 07:19:05 PM 41.5286 -85.2608 184° South 343 395 18,000  Level Chicago Center
Mon 07:20:07 PM 41.4344 -85.2708 185° South 338 389 18,000  Level Chicago Center
Mon 07:21:09 PM 41.3392 -85.2803 184° South 340 391 18,000 -484 Level Chicago Center
Mon 07:22:11 PM 41.2414 -85.2908 185° South 348 400 17,000 -1,161 Descending Chicago Center
Mon 07:23:13 PM 41.1464 -85.3003 184° South 345 397 15,600 -1,418 Descending Chicago Center
Mon 07:25:13 PM 40.9569 -85.3211 185° South 325 374 12,700 -1,451 Descending Indianapolis Center
Mon 07:26:15 PM 40.8717 -85.3278 183° South 312 359 11,200 -1,452 Descending Indianapolis Center
Mon 07:27:17 PM 40.7867 -85.3172 175° South 308 354 9,700 -1,641 Descending Indianapolis Center
Mon 07:28:23 PM 40.7011 -85.3081 175° South 286 329 7,700 -1,875 Descending Chicago Center
Mon 07:29:25 PM 40.6228 -85.3003 176° South 263 303 5,700 -1,790 Descending Chicago Center
Mon 07:30:27 PM 40.5500 -85.3031 182° South 262 302 4,000 -823 Descending Chicago Center
Mon 07:31:29 PM 40.4803 -85.3242 193° South 259 298 4,000 -97 Level Chicago Center
Mon 07:32:31 PM 40.4067 -85.3500 195° South 269 310 3,800 -677 Descending Chicago Center
Mon 07:33:33 PM 40.3339 -85.4056 210° Southwest 261 300 2,600 -629 Descending Chicago Center
Mon 07:34:35 PM 40.2906 -85.4447 215° Southwest 245 282 2,500 -36 Descending Chicago Center
Mon 07:36:21 PM 40.3000 -85.4333 43° Northeast 213 245 2,500  Level Indianapolis TRACON
Mon 07:38:21 PM 40.3000 -85.4333 270° West 213 245 2,500  Level Indianapolis TRACON
Mon 07:40:21 PM 40.3000 -85.4333 270° West 213 245 2,500  Level Indianapolis TRACON
Mon 07:42:22 PM 40.3000 -85.4333 270° West 213 245 2,500  Level Indianapolis TRACON

Login

Don't have an account? Register now (free) for customized features, flight alerts, and more!